createdAt,value
2022-08-17T00:00:34.210Z,99944.08
2022-08-17T00:03:13.636Z,99939.33
2022-08-17T00:05:47.021Z,99940.16
2022-08-17T00:08:17.021Z,99937.79
2022-08-17T00:10:46.988Z,99940.00
2022-08-17T00:13:19.476Z,99938.96
2022-08-17T00:15:47.928Z,99935.78
2022-08-17T00:19:01.269Z,99936.67
2022-08-17T00:21:10.478Z,99934.80
2022-08-17T00:23:44.253Z,99935.69
2022-08-17T00:26:16.250Z,99931.31
2022-08-17T00:29:04.902Z,99930.66
2022-08-17T00:31:34.402Z,99929.50
2022-08-17T00:34:03.982Z,99928.41
2022-08-17T00:36:32.275Z,99933.05
2022-08-17T00:38:59.925Z,99936.20
2022-08-17T00:41:29.560Z,99937.59
2022-08-17T00:44:02.127Z,99937.30
2022-08-17T00:46:34.814Z,99936.27
2022-08-17T00:49:03.491Z,99936.76
2022-08-17T00:51:38.575Z,99938.06
2022-08-17T00:54:15.089Z,99935.70
2022-08-17T00:56:46.544Z,99933.16
2022-08-17T00:59:19.459Z,99936.02
2022-08-17T01:01:49.515Z,99935.52
2022-08-17T01:04:20.269Z,99938.19
2022-08-17T01:06:49.568Z,99938.40
2022-08-17T01:09:19.184Z,99937.36
2022-08-17T01:11:52.370Z,99935.05
2022-08-17T01:14:23.147Z,99933.68
2022-08-17T01:16:54.268Z,99932.80
2022-08-17T01:19:34.313Z,99935.70
2022-08-17T01:22:10.959Z,99937.12
2022-08-17T01:24:42.907Z,99934.75
2022-08-17T01:27:13.420Z,99939.84
2022-08-17T01:29:45.560Z,99941.64
2022-08-17T01:32:13.464Z,99940.95
2022-08-17T01:34:42.613Z,99936.73
2022-08-17T01:37:14.498Z,99935.41
2022-08-17T01:39:52.755Z,99935.15
2022-08-17T01:42:30.840Z,99936.09
2022-08-17T01:45:04.360Z,99940.32
2022-08-17T01:47:32.587Z,99938.47
2022-08-17T01:50:15.781Z,99939.75
2022-08-17T01:52:45.725Z,99938.27
2022-08-17T01:55:17.142Z,99941.83
2022-08-17T01:57:45.744Z,99942.45
2022-08-17T02:00:14.270Z,99944.25
2022-08-17T02:02:42.854Z,99942.79
2022-08-17T02:05:10.620Z,99947.14
2022-08-17T02:07:59.834Z,99947.17
2022-08-17T02:10:34.252Z,99943.77
2022-08-17T02:13:04.207Z,99942.09
2022-08-17T02:15:32.340Z,99937.45
2022-08-17T02:18:01.687Z,99933.27
2022-08-17T02:20:41.660Z,99934.15
2022-08-17T02:23:12.802Z,99939.10
2022-08-17T02:25:44.965Z,99941.42
2022-08-17T02:28:12.660Z,99943.16
2022-08-17T02:31:01.205Z,99940.15
2022-08-17T02:33:41.902Z,99941.00
2022-08-17T02:36:12.870Z,99941.17
2022-08-17T02:38:42.367Z,99941.61
2022-08-17T02:41:10.491Z,99946.58
2022-08-17T02:43:38.230Z,99946.55
2022-08-17T02:46:06.056Z,99950.40
2022-08-17T02:48:33.819Z,99956.17
2022-08-17T02:51:01.567Z,99954.89
2022-08-17T02:53:35.600Z,99953.20
2022-08-17T02:56:04.686Z,99952.72
2022-08-17T02:58:35.041Z,99951.55
2022-08-17T03:01:08.233Z,99951.04
2022-08-17T03:03:37.845Z,99947.00
2022-08-17T03:06:07.784Z,99948.45
2022-08-17T03:08:36.531Z,99949.22
2022-08-17T03:11:04.455Z,99950.08
2022-08-17T03:13:32.499Z,99955.61
2022-08-17T03:16:00.209Z,99957.02
2022-08-17T03:18:28.276Z,99955.88
2022-08-17T03:21:00.062Z,99961.08
2022-08-17T03:23:29.572Z,99958.56
2022-08-17T03:25:58.222Z,99954.67
2022-08-17T03:28:26.224Z,99957.67
2022-08-17T03:30:53.956Z,99965.63
2022-08-17T03:33:21.860Z,99962.60
2022-08-17T03:35:50.097Z,99970.70
2022-08-17T03:38:18.300Z,99973.75
2022-08-17T03:40:58.554Z,99973.55
2022-08-17T03:43:30.162Z,99970.43
2022-08-17T03:46:34.303Z,99976.40
2022-08-17T03:49:26.597Z,99974.74
2022-08-17T03:52:14.377Z,99971.89
2022-08-17T03:55:03.034Z,99974.80
2022-08-17T03:57:32.387Z,99977.45
2022-08-17T04:00:00.113Z,99982.52
2022-08-17T04:02:31.983Z,99983.98
2022-08-17T04:05:00.456Z,99988.48
2022-08-17T04:07:30.456Z,99985.88
2022-08-17T04:09:59.532Z,99991.67
2022-08-17T04:12:31.658Z,99989.23
2022-08-17T04:14:59.649Z,99991.05
2022-08-17T04:17:29.383Z,99990.30
2022-08-17T04:19:57.355Z,99990.96
2022-08-17T04:22:32.376Z,99995.09
2022-08-17T04:25:16.250Z,99998.47
2022-08-17T04:27:44.201Z,99999.47
2022-08-17T04:30:13.371Z,99993.89
2022-08-17T04:33:04.974Z,99992.98
2022-08-17T04:35:38.638Z,99996.52
2022-08-17T04:38:07.817Z,99998.79
2022-08-17T04:40:54.869Z,99998.83
2022-08-17T04:43:24.910Z,99998.29
2022-08-17T04:45:57.153Z,99996.61
2022-08-17T04:48:36.308Z,100000.23
2022-08-17T04:51:13.653Z,100005.02
2022-08-17T04:53:44.702Z,100011.30
2022-08-17T04:56:18.304Z,100010.05
2022-08-17T04:58:49.828Z,100012.25
2022-08-17T05:01:23.912Z,100008.60
2022-08-17T05:03:59.249Z,100012.02
2022-08-17T05:06:28.811Z,100008.33
2022-08-17T05:08:58.250Z,100008.75
2022-08-17T05:11:27.878Z,100007.04
2022-08-17T05:13:57.218Z,100006.55
2022-08-17T05:16:27.373Z,100008.52
2022-08-17T05:18:55.754Z,100004.41
2022-08-17T05:21:23.777Z,100004.40
2022-08-17T05:23:54.759Z,100007.48
2022-08-17T05:26:27.356Z,100007.61
2022-08-17T05:29:00.507Z,100010.71
2022-08-17T05:31:31.107Z,100011.94
2022-08-17T05:33:59.454Z,100010.54
2022-08-17T05:36:42.114Z,100013.59
2022-08-17T05:39:15.990Z,100009.33
2022-08-17T05:41:47.551Z,100008.02
2022-08-17T05:44:15.989Z,100007.91
2022-08-17T05:46:49.237Z,100010.36
2022-08-17T05:49:22.690Z,100009.98
2022-08-17T05:52:05.590Z,100015.30
2022-08-17T05:55:04.626Z,100015.46
2022-08-17T05:57:59.950Z,100012.54
2022-08-17T06:00:42.149Z,100010.95
2022-08-17T06:03:26.344Z,100008.42
2022-08-17T06:06:00.595Z,100013.58
2022-08-17T06:08:48.245Z,100020.12
2022-08-17T06:11:41.575Z,100021.28
2022-08-17T06:14:34.495Z,100026.00
2022-08-17T06:17:11.585Z,100026.38
2022-08-17T06:19:39.151Z,100034.41
2022-08-17T06:22:08.880Z,100035.98
2022-08-17T06:24:50.097Z,100035.61
2022-08-17T06:27:26.603Z,100038.48
2022-08-17T06:30:16.812Z,100034.70
2022-08-17T06:32:47.711Z,100033.92
2022-08-17T06:35:31.843Z,100031.08
2022-08-17T06:38:34.968Z,100027.48
2022-08-17T06:41:22.044Z,100030.75
2022-08-17T06:44:44.766Z,100026.04
2022-08-17T06:47:28.949Z,100027.09
2022-08-17T06:50:20.571Z,100030.70
2022-08-17T06:52:57.673Z,100031.27
2022-08-17T06:55:38.160Z,100032.70
2022-08-17T06:58:16.355Z,100030.13
2022-08-17T07:00:47.715Z,100030.39
2022-08-17T07:03:24.395Z,100035.02
2022-08-17T07:05:57.138Z,100037.66
2022-08-17T07:08:29.968Z,100041.95
2022-08-17T07:11:05.263Z,100042.38
2022-08-17T07:13:51.669Z,100044.98
2022-08-17T07:16:30.878Z,100042.04
2022-08-17T07:19:00.092Z,100041.23
2022-08-17T07:21:56.413Z,100039.78
2022-08-17T07:24:33.266Z,100041.16
2022-08-17T07:27:13.771Z,100041.81
2022-08-17T07:29:53.630Z,100045.04
2022-08-17T07:32:27.020Z,100044.43
2022-08-17T07:35:10.733Z,100042.29
2022-08-17T07:37:41.716Z,100040.53
2022-08-17T07:40:26.590Z,100040.35
2022-08-17T07:43:04.981Z,100041.65
2022-08-17T07:45:53.176Z,100041.60
2022-08-17T07:48:25.446Z,100039.85
2022-08-17T07:50:55.035Z,100038.96
2022-08-17T07:53:26.231Z,100036.88
2022-08-17T07:55:55.148Z,100035.77
2022-08-17T07:58:24.144Z,100035.56
2022-08-17T08:01:15.452Z,100039.21
2022-08-17T08:03:46.415Z,100042.44
2022-08-17T08:06:24.121Z,100044.17
2022-08-17T08:08:56.539Z,100042.48
2022-08-17T08:11:38.362Z,100038.11
2022-08-17T08:14:33.666Z,100039.23
2022-08-17T08:17:05.728Z,100039.63
2022-08-17T08:19:34.779Z,100041.52
2022-08-17T08:22:11.165Z,100043.64
2022-08-17T08:24:51.640Z,100045.48
2022-08-17T08:27:34.789Z,100049.06
2022-08-17T08:30:40.743Z,100042.30
2022-08-17T08:33:11.048Z,100045.48
2022-08-17T08:36:02.907Z,100046.09
2022-08-17T08:38:55.943Z,100046.36
2022-08-17T08:41:38.683Z,100047.05
2022-08-17T08:44:15.856Z,100049.41
2022-08-17T08:47:18.387Z,100045.62
2022-08-17T08:50:04.030Z,100054.67
2022-08-17T08:52:59.764Z,100059.42
2022-08-17T08:55:49.289Z,100059.66
2022-08-17T08:58:31.816Z,100059.38
2022-08-17T09:01:23.258Z,100057.06
2022-08-17T09:04:16.969Z,100056.13
2022-08-17T09:07:23.280Z,100059.08
2022-08-17T09:10:15.985Z,100064.37
2022-08-17T09:13:17.687Z,100062.89
2022-08-17T09:15:50.468Z,100055.88
2022-08-17T09:19:00.309Z,100057.75
2022-08-17T09:21:23.675Z,100054.36
2022-08-17T09:24:12.728Z,100056.70
2022-08-17T09:26:56.416Z,100054.41
2022-08-17T09:29:27.086Z,100056.95
2022-08-17T09:32:01.758Z,100059.55
2022-08-17T09:34:47.046Z,100065.16
2022-08-17T09:37:46.604Z,100063.23
2022-08-17T09:40:55.651Z,100063.02
2022-08-17T09:43:44.854Z,100058.04
2022-08-17T09:46:37.472Z,100062.57
2022-08-17T09:49:23.162Z,100062.64
2022-08-17T09:51:58.704Z,100060.89
2022-08-17T09:54:40.208Z,100063.25
2022-08-17T09:57:32.144Z,100064.91
2022-08-17T10:00:08.275Z,100060.23
2022-08-17T10:02:57.933Z,100061.91
2022-08-17T10:06:13.347Z,100064.16
2022-08-17T10:09:07.585Z,100067.09
2022-08-17T10:11:57.500Z,100069.44
2022-08-17T10:14:36.555Z,100068.33
2022-08-17T10:17:16.974Z,100062.77
2022-08-17T10:19:56.789Z,100061.27
2022-08-17T10:23:00.014Z,100069.45
2022-08-17T10:25:55.049Z,100064.42
2022-08-17T10:28:30.327Z,100068.52
2022-08-17T10:31:33.730Z,100067.33
2022-08-17T10:34:22.848Z,100068.37
2022-08-17T10:37:11.647Z,100064.14
2022-08-17T10:39:52.056Z,100058.76
2022-08-17T10:42:43.820Z,100062.63
2022-08-17T10:45:31.584Z,100065.70
2022-08-17T10:48:20.723Z,100067.10
2022-08-17T10:51:02.000Z,100068.14
2022-08-17T10:53:32.660Z,100073.85
2022-08-17T10:56:12.823Z,100075.16
2022-08-17T10:58:50.785Z,100069.36
2022-08-17T11:01:18.594Z,100065.65
2022-08-17T11:03:58.520Z,100064.81
2022-08-17T11:06:51.050Z,100064.73
2022-08-17T11:09:24.839Z,100066.83
2022-08-17T11:11:55.580Z,100067.10
2022-08-17T11:14:38.451Z,100064.58
2022-08-17T11:17:20.177Z,100063.99
2022-08-17T11:20:06.121Z,100059.67
2022-08-17T11:22:59.160Z,100060.72
2022-08-17T11:25:54.766Z,100066.25
2022-08-17T11:28:28.104Z,100071.48
2022-08-17T11:31:06.099Z,100069.90
2022-08-17T11:33:36.808Z,100068.77
2022-08-17T11:36:15.378Z,100064.93
2022-08-17T11:39:13.445Z,100062.90
2022-08-17T11:41:51.151Z,100067.88
2022-08-17T11:44:25.288Z,100070.23
2022-08-17T11:47:35.436Z,100069.19
2022-08-17T11:50:44.428Z,100068.00
2022-08-17T11:53:40.136Z,100064.52
2022-08-17T11:56:10.614Z,100066.13
2022-08-17T11:58:43.134Z,100064.96
2022-08-17T12:01:23.645Z,100064.39
2022-08-17T12:03:58.963Z,100061.65
2022-08-17T12:07:07.227Z,100059.11
2022-08-17T12:09:40.358Z,100055.15
2022-08-17T12:12:16.856Z,100055.78
2022-08-17T12:15:09.972Z,100059.15
2022-08-17T12:17:40.355Z,100057.59
2022-08-17T12:20:33.999Z,100060.23
2022-08-17T12:23:25.843Z,100064.40
2022-08-17T12:26:26.061Z,100063.66
2022-08-17T12:29:00.071Z,100066.58
2022-08-17T12:31:34.519Z,100068.20
2022-08-17T12:34:04.843Z,100070.26
2022-08-17T12:36:33.559Z,100068.35
2022-08-17T12:39:14.182Z,100070.48
2022-08-17T12:41:46.964Z,100069.69
2022-08-17T12:44:18.782Z,100070.00
2022-08-17T12:47:20.970Z,100064.54
2022-08-17T12:49:55.076Z,100067.23
2022-08-17T12:52:30.408Z,100070.19
2022-08-17T12:55:02.786Z,100069.73
2022-08-17T12:57:38.123Z,100071.21
2022-08-17T13:00:12.180Z,100072.00
2022-08-17T13:02:47.264Z,100071.33
2022-08-17T13:05:20.481Z,100063.89
2022-08-17T13:07:48.795Z,100060.27
2022-08-17T13:10:48.474Z,100056.35
2022-08-17T13:13:26.908Z,100051.25
2022-08-17T13:16:00.646Z,100049.27
2022-08-17T13:18:49.940Z,100044.23
2022-08-17T13:21:26.881Z,100043.89
2022-08-17T13:24:00.664Z,100037.77
2022-08-17T13:26:36.751Z,100038.92
2022-08-17T13:29:24.006Z,100039.14
2022-08-17T13:32:15.182Z,100042.30
2022-08-17T13:35:13.015Z,100043.34
2022-08-17T13:37:37.116Z,100046.38
2022-08-17T13:40:10.855Z,100042.81
2022-08-17T13:42:55.639Z,100050.41
2022-08-17T13:45:35.378Z,100045.81
2022-08-17T13:48:32.828Z,100047.92
2022-08-17T13:51:00.537Z,100049.61
2022-08-17T13:53:35.714Z,100054.23
2022-08-17T13:56:37.587Z,100052.10
2022-08-17T13:59:36.366Z,100051.65
2022-08-17T14:02:21.176Z,100052.54
2022-08-17T14:04:49.414Z,100056.50
2022-08-17T14:07:19.360Z,100056.13
2022-08-17T14:10:01.555Z,100058.80
2022-08-17T14:12:32.290Z,100058.60
2022-08-17T14:15:00.608Z,100061.56
2022-08-17T14:17:29.512Z,100059.69
2022-08-17T14:19:58.568Z,100062.10
2022-08-17T14:22:32.525Z,100059.40
2022-08-17T14:25:01.781Z,100058.77
2022-08-17T14:27:33.519Z,100057.32
2022-08-17T14:30:10.463Z,100058.23
2022-08-17T14:32:41.453Z,100058.73
2022-08-17T14:35:11.245Z,100058.33
2022-08-17T14:37:39.776Z,100059.70
2022-08-17T14:40:11.987Z,100058.60
2022-08-17T14:42:42.741Z,100062.09
2022-08-17T14:45:30.207Z,100062.11
2022-08-17T14:48:04.187Z,100058.86
2022-08-17T14:50:35.411Z,100059.55
2022-08-17T14:53:05.596Z,100058.32
2022-08-17T14:55:33.647Z,100059.98
2022-08-17T14:58:01.443Z,100055.76
2022-08-17T15:00:29.170Z,100058.02
2022-08-17T15:02:59.263Z,100055.27
2022-08-17T15:05:31.772Z,100058.06
2022-08-17T15:08:01.218Z,100057.28
2022-08-17T15:10:30.451Z,100056.29
2022-08-17T15:13:00.507Z,100056.48
2022-08-17T15:15:29.078Z,100052.06
2022-08-17T15:17:59.895Z,100053.70
2022-08-17T15:20:30.199Z,100048.61
2022-08-17T15:22:59.332Z,100045.52
2022-08-17T15:25:30.175Z,100046.06
2022-08-17T15:27:59.000Z,100045.83
2022-08-17T15:30:28.202Z,100049.09
2022-08-17T15:32:58.648Z,100049.38
2022-08-17T15:35:29.899Z,100050.55
2022-08-17T15:38:10.637Z,100050.77
2022-08-17T15:40:43.170Z,100052.50
2022-08-17T15:43:19.289Z,100050.95
2022-08-17T15:45:58.770Z,100052.65
2022-08-17T15:48:43.561Z,100051.41
2022-08-17T15:51:15.498Z,100055.64
2022-08-17T15:53:47.304Z,100054.65
2022-08-17T15:56:16.532Z,100057.52
2022-08-17T15:58:46.910Z,100055.53
2022-08-17T16:01:18.659Z,100053.17
2022-08-17T16:04:14.900Z,100053.85
2022-08-17T16:06:53.163Z,100050.79
2022-08-17T16:09:20.839Z,100048.73
2022-08-17T16:11:53.659Z,100050.85
2022-08-17T16:14:24.519Z,100049.67
2022-08-17T16:17:00.542Z,100048.08
2022-08-17T16:19:28.341Z,100044.84
2022-08-17T16:21:56.095Z,100043.38
2022-08-17T16:24:23.807Z,100044.94
2022-08-17T16:26:51.510Z,100050.19
2022-08-17T16:29:19.219Z,100049.91
2022-08-17T16:31:48.042Z,100050.80
2022-08-17T16:34:18.653Z,100052.00
2022-08-17T16:36:50.544Z,100048.06
2022-08-17T16:39:26.637Z,100051.74
2022-08-17T16:41:56.329Z,100054.14
2022-08-17T16:44:27.558Z,100055.40
2022-08-17T16:46:56.019Z,100058.20
2022-08-17T16:49:35.820Z,100064.16
2022-08-17T16:52:10.103Z,100062.67
2022-08-17T16:54:43.930Z,100061.40
2022-08-17T16:57:13.536Z,100067.41
2022-08-17T16:59:44.993Z,100065.85
2022-08-17T17:02:23.596Z,100065.80
2022-08-17T17:05:13.222Z,100066.63
2022-08-17T17:08:03.562Z,100066.56
2022-08-17T17:10:39.878Z,100062.14
2022-08-17T17:13:13.198Z,100060.52
2022-08-17T17:16:26.478Z,100061.48
2022-08-17T17:19:09.441Z,100070.18
2022-08-17T17:21:51.986Z,100072.14
2022-08-17T17:24:35.234Z,100071.58
2022-08-17T17:27:14.978Z,100076.95
2022-08-17T17:30:07.646Z,100079.31
2022-08-17T17:32:44.866Z,100082.92
2022-08-17T17:35:17.416Z,100086.81
2022-08-17T17:37:46.872Z,100090.73
2022-08-17T17:40:23.165Z,100091.42
2022-08-17T17:42:53.798Z,100095.91
2022-08-17T17:45:31.289Z,100097.48
2022-08-17T17:47:58.997Z,100099.15
2022-08-17T17:50:37.173Z,100104.13
2022-08-17T17:53:15.406Z,100103.45
2022-08-17T17:55:52.534Z,100104.65
2022-08-17T17:58:32.231Z,100109.63
2022-08-17T18:01:31.721Z,100113.55
2022-08-17T18:03:59.461Z,100116.70
2022-08-17T18:06:48.414Z,100116.35
2022-08-17T18:09:43.882Z,100117.88
2022-08-17T18:12:45.847Z,100118.39
2022-08-17T18:15:25.531Z,100121.32
2022-08-17T18:18:22.766Z,100122.54
2022-08-17T18:20:56.256Z,100126.16
2022-08-17T18:23:27.976Z,100122.39
2022-08-17T18:25:58.793Z,100126.32
2022-08-17T18:28:31.750Z,100127.52
2022-08-17T18:31:22.714Z,100124.55
2022-08-17T18:33:54.459Z,100131.02
2022-08-17T18:36:39.927Z,100135.71
2022-08-17T18:39:14.473Z,100139.18
2022-08-17T18:41:45.218Z,100144.38
2022-08-17T18:44:32.866Z,100140.27
2022-08-17T18:47:15.014Z,100140.80
2022-08-17T18:49:56.280Z,100147.66
2022-08-17T18:52:30.393Z,100147.42
2022-08-17T18:55:11.818Z,100151.77
2022-08-17T18:57:53.456Z,100150.26
2022-08-17T19:00:40.491Z,100152.55
2022-08-17T19:03:20.388Z,100153.01
2022-08-17T19:05:52.406Z,100154.98
2022-08-17T19:08:29.062Z,100157.82
2022-08-17T19:11:19.316Z,100159.19
2022-08-17T19:13:55.691Z,100157.22
2022-08-17T19:16:32.415Z,100164.08
2022-08-17T19:19:16.338Z,100162.92
2022-08-17T19:22:08.883Z,100162.55
2022-08-17T19:24:47.419Z,100162.70
2022-08-17T19:27:20.956Z,100164.27
2022-08-17T19:30:07.762Z,100162.61
2022-08-17T19:32:36.851Z,100164.48
2022-08-17T19:35:07.661Z,100164.23
2022-08-17T19:38:13.063Z,100166.97
2022-08-17T19:40:53.965Z,100173.80
2022-08-17T19:43:51.415Z,100176.52
2022-08-17T19:46:37.072Z,100180.15
2022-08-17T19:49:09.982Z,100187.30
2022-08-17T19:51:52.104Z,100190.25
2022-08-17T19:54:24.779Z,100189.55
2022-08-17T19:57:27.874Z,100189.17
2022-08-17T20:00:11.830Z,100191.63
2022-08-17T20:02:55.250Z,100190.77
2022-08-17T20:05:30.726Z,100195.08
2022-08-17T20:08:05.877Z,100194.55
2022-08-17T20:11:21.327Z,100193.48
2022-08-17T20:14:15.189Z,100196.52
2022-08-17T20:16:43.152Z,100201.30
2022-08-17T20:19:31.931Z,100209.27
2022-08-17T20:22:16.998Z,100208.71
2022-08-17T20:25:11.559Z,100206.98
2022-08-17T20:28:05.557Z,100203.39
2022-08-17T20:30:42.327Z,100197.00
2022-08-17T20:33:34.993Z,100195.73
2022-08-17T20:36:11.283Z,100196.08
2022-08-17T20:38:43.044Z,100201.42
2022-08-17T20:41:16.740Z,100205.91
2022-08-17T20:43:55.247Z,100216.50
2022-08-17T20:46:22.932Z,100227.62
2022-08-17T20:48:55.391Z,100232.44
2022-08-17T20:51:32.621Z,100238.34
2022-08-17T20:54:18.760Z,100238.59
2022-08-17T20:56:48.929Z,100237.23
2022-08-17T20:59:24.167Z,100230.83
2022-08-17T21:02:17.647Z,100229.91
2022-08-17T21:04:49.942Z,100231.71
2022-08-17T21:07:42.879Z,100235.23
2022-08-17T21:10:23.579Z,100235.98
2022-08-17T21:13:00.457Z,100235.96
2022-08-17T21:15:36.128Z,100238.73
2022-08-17T21:18:19.236Z,100238.33
2022-08-17T21:21:20.621Z,100240.20
2022-08-17T21:24:11.779Z,100236.34
2022-08-17T21:27:21.874Z,100236.58
2022-08-17T21:30:06.694Z,100238.08
2022-08-17T21:32:42.079Z,100235.88
2022-08-17T21:35:25.283Z,100230.27
2022-08-17T21:38:00.935Z,100227.56
2022-08-17T21:40:32.196Z,100223.31
2022-08-17T21:43:23.549Z,100219.36
2022-08-17T21:45:58.837Z,100218.27
2022-08-17T21:48:29.695Z,100218.33
2022-08-17T21:51:12.930Z,100217.66
2022-08-17T21:53:50.232Z,100220.20
2022-08-17T21:56:29.510Z,100214.92
2022-08-17T21:59:16.116Z,100217.04
2022-08-17T22:01:53.093Z,100215.68
2022-08-17T22:04:27.672Z,100219.40
2022-08-17T22:06:57.875Z,100216.52
2022-08-17T22:09:51.237Z,100214.67
2022-08-17T22:12:21.715Z,100212.27
2022-08-17T22:14:55.569Z,100214.94
2022-08-17T22:17:36.582Z,100213.27
2022-08-17T22:20:20.877Z,100209.73
2022-08-17T22:23:08.760Z,100209.36
2022-08-17T22:25:40.864Z,100209.13
2022-08-17T22:28:11.726Z,100211.11
2022-08-17T22:31:03.322Z,100206.88
2022-08-17T22:33:45.233Z,100203.77
2022-08-17T22:36:31.310Z,100199.75
2022-08-17T22:39:26.264Z,100199.92
2022-08-17T22:41:59.163Z,100201.91
2022-08-17T22:44:44.848Z,100196.43
2022-08-17T22:47:16.391Z,100192.34
2022-08-17T22:49:56.681Z,100194.58
2022-08-17T22:52:32.588Z,100199.37
2022-08-17T22:55:35.523Z,100197.40
2022-08-17T22:58:29.418Z,100195.77
2022-08-17T23:00:57.078Z,100187.03
2022-08-17T23:03:27.210Z,100184.50
2022-08-17T23:06:10.786Z,100181.25
2022-08-17T23:08:56.863Z,100172.31
2022-08-17T23:11:36.545Z,100172.16
2022-08-17T23:14:19.352Z,100174.45
2022-08-17T23:16:50.156Z,100176.94
2022-08-17T23:19:21.383Z,100173.04
2022-08-17T23:21:51.030Z,100168.77
2022-08-17T23:24:25.369Z,100168.83
2022-08-17T23:26:53.919Z,100173.39
2022-08-17T23:29:22.634Z,100175.28
2022-08-17T23:31:52.578Z,100177.53
2022-08-17T23:34:20.617Z,100173.95
2022-08-17T23:36:52.627Z,100169.66
2022-08-17T23:39:24.651Z,100166.39
2022-08-17T23:41:59.036Z,100161.44
2022-08-17T23:44:27.411Z,100161.54
2022-08-17T23:46:55.533Z,100164.05
2022-08-17T23:49:25.199Z,100160.55
2022-08-17T23:51:56.214Z,100157.58
2022-08-17T23:54:31.444Z,100159.98
2022-08-17T23:57:00.702Z,100156.12
2022-08-17T23:59:29.334Z,100157.39
